Pagina principale
METAR-TAF:

METAR-TAF

Aeroporti :

Tabarka, Tunisia

latitudine: 36-57N, longitudine: 008-45E, altezza: 20 m

Osservazione

Il bollettino è stato emesso 1 ora e 11 minuti fa, alle 16:00 UTC
Vento 10 kt da nord
Temperature 30°C
Umidità 79%
Pressione 1013 hPa
Visibilità 10 km o più
Poco nuvoloso ad un'altezza di 2600 ft

METAR: DTKA 191600Z 36010KT 9999 FEW026 30/26 Q1013 NOSIG

Ora: 18:11 (17:11 UTC)

Previsione

Il bollettino è stato emesso 2 ore e 11 minuti fa, alle 15:00 UTC
Previsione valida dal 19 alle 16 UTC al 20 alle 01 UTC
Vento 8 kt da nord
Visibilità 10 km o più
Poco nuvoloso ad un'altezza di 2600 ft

TAF: DTKA 191500Z 1916/2001 35008KT 9999 FEW026

Osservazioni e previsioni meteorologiche di più di 4000 aeroporti (messaggi METAR e TAF).

Le stazioni disponibili sono rappresentate dai dischi gialli e rossi sulla carta.

Puntare il mouse per vedere il nome della stazione.

Clicca sopra per visualizzare le osservazioni e previsioni meteorologiche.

Per cambiare la mappa : fare clic sui pulsanti verdi con una croce nera per ingrandire, il pulsante verde con un trattino per diminuire, o sulla freccia verde per le mappe adiacenti.


METAR-TAF: